sensor_id;sensor_type;location;lat;lon;timestamp;temperature;humidity
52495;DHT22;38405;53.212;5.660;2023-03-01T00:00:03;-1.50;99.90
52495;DHT22;38405;53.212;5.660;2023-03-01T00:02:29;-1.50;99.90
52495;DHT22;38405;53.212;5.660;2023-03-01T00:04:55;-1.50;99.90
52495;DHT22;38405;53.212;5.660;2023-03-01T00:07:20;-1.60;99.90
52495;DHT22;38405;53.212;5.660;2023-03-01T00:09:46;-1.60;99.90
52495;DHT22;38405;53.212;5.660;2023-03-01T00:12:12;-1.60;99.90
52495;DHT22;38405;53.212;5.660;2023-03-01T00:14:37;-1.70;99.90
52495;DHT22;38405;53.212;5.660;2023-03-01T00:17:03;-1.80;99.90
52495;DHT22;38405;53.212;5.660;2023-03-01T00:19:31;-1.70;99.90
52495;DHT22;38405;53.212;5.660;2023-03-01T00:21:58;-1.60;99.90
52495;DHT22;38405;53.212;5.660;2023-03-01T00:24:23;-1.70;99.90
52495;DHT22;38405;53.212;5.660;2023-03-01T00:26:53;-1.70;99.90
52495;DHT22;38405;53.212;5.660;2023-03-01T00:29:21;-1.80;99.90
52495;DHT22;38405;53.212;5.660;2023-03-01T00:31:46;-1.80;99.90
52495;DHT22;38405;53.212;5.660;2023-03-01T00:34:18;-1.80;99.90
52495;DHT22;38405;53.212;5.660;2023-03-01T00:36:46;-1.80;99.90
52495;DHT22;38405;53.212;5.660;2023-03-01T00:39:14;-1.80;99.90
52495;DHT22;38405;53.212;5.660;2023-03-01T00:41:43;-1.80;99.90
52495;DHT22;38405;53.212;5.660;2023-03-01T00:44:11;-1.80;99.90
52495;DHT22;38405;53.212;5.660;2023-03-01T00:46:37;-1.80;99.90
52495;DHT22;38405;53.212;5.660;2023-03-01T00:49:03;-1.80;99.90
52495;DHT22;38405;53.212;5.660;2023-03-01T00:51:30;-1.80;99.90
52495;DHT22;38405;53.212;5.660;2023-03-01T00:53:58;-1.80;99.90
52495;DHT22;38405;53.212;5.660;2023-03-01T00:56:25;-1.90;99.90
52495;DHT22;38405;53.212;5.660;2023-03-01T00:58:51;-1.50;99.90
52495;DHT22;38405;53.212;5.660;2023-03-01T01:01:22;-1.90;99.90
52495;DHT22;38405;53.212;5.660;2023-03-01T01:03:54;-2.00;99.90
52495;DHT22;38405;53.212;5.660;2023-03-01T01:06:54;-2.00;99.90
52495;DHT22;38405;53.212;5.660;2023-03-01T01:09:16;-2.00;99.90
52495;DHT22;38405;53.212;5.660;2023-03-01T01:11:50;-2.00;99.90
52495;DHT22;38405;53.212;5.660;2023-03-01T01:14:16;-1.80;99.90
52495;DHT22;38405;53.212;5.660;2023-03-01T01:16:43;-2.10;99.90
52495;DHT22;38405;53.212;5.660;2023-03-01T01:19:10;-2.10;99.90
52495;DHT22;38405;53.212;5.660;2023-03-01T01:21:36;-2.20;99.90
52495;DHT22;38405;53.212;5.660;2023-03-01T01:24:03;-2.20;99.90
52495;DHT22;38405;53.212;5.660;2023-03-01T01:26:30;-2.30;99.90
52495;DHT22;38405;53.212;5.660;2023-03-01T01:28:57;-2.30;99.90
52495;DHT22;38405;53.212;5.660;2023-03-01T01:31:24;-2.30;99.90
52495;DHT22;38405;53.212;5.660;2023-03-01T01:33:51;-2.30;99.90
52495;DHT22;38405;53.212;5.660;2023-03-01T01:36:17;-2.20;99.90
52495;DHT22;38405;53.212;5.660;2023-03-01T01:38:43;-2.20;99.90
52495;DHT22;38405;53.212;5.660;2023-03-01T01:41:10;-2.30;99.90
52495;DHT22;38405;53.212;5.660;2023-03-01T01:43:48;-2.30;99.90
52495;DHT22;38405;53.212;5.660;2023-03-01T01:46:31;-2.30;99.90
52495;DHT22;38405;53.212;5.660;2023-03-01T01:49:05;-1.40;99.90
52495;DHT22;38405;53.212;5.660;2023-03-01T01:51:39;-2.40;99.90
52495;DHT22;38405;53.212;5.660;2023-03-01T01:54:24;-2.50;99.90
52495;DHT22;38405;53.212;5.660;2023-03-01T01:57:03;-2.50;99.90
52495;DHT22;38405;53.212;5.660;2023-03-01T01:59:32;-2.50;99.90
52495;DHT22;38405;53.212;5.660;2023-03-01T02:02:03;-2.50;99.90
52495;DHT22;38405;53.212;5.660;2023-03-01T02:04:30;-2.50;99.90
52495;DHT22;38405;53.212;5.660;2023-03-01T02:07:16;-2.10;99.90
52495;DHT22;38405;53.212;5.660;2023-03-01T02:09:46;-2.50;99.90
52495;DHT22;38405;53.212;5.660;2023-03-01T02:12:18;-2.60;99.90
52495;DHT22;38405;53.212;5.660;2023-03-01T02:14:44;-2.60;99.90
52495;DHT22;38405;53.212;5.660;2023-03-01T02:17:11;-2.60;99.90
52495;DHT22;38405;53.212;5.660;2023-03-01T02:22:28;-2.60;99.90
52495;DHT22;38405;53.212;5.660;2023-03-01T02:27:23;-2.60;99.90
52495;DHT22;38405;53.212;5.660;2023-03-01T02:29:52;-2.60;99.90
52495;DHT22;38405;53.212;5.660;2023-03-01T02:32:18;-2.60;99.90
52495;DHT22;38405;53.212;5.660;2023-03-01T02:34:54;-2.30;99.90
52495;DHT22;38405;53.212;5.660;2023-03-01T02:37:21;-2.60;99.90
52495;DHT22;38405;53.212;5.660;2023-03-01T02:39:58;-2.20;99.90
52495;DHT22;38405;53.212;5.660;2023-03-01T02:42:31;-2.60;99.90
52495;DHT22;38405;53.212;5.660;2023-03-01T02:44:59;-2.50;99.90
52495;DHT22;38405;53.212;5.660;2023-03-01T02:47:24;-2.50;99.90
52495;DHT22;38405;53.212;5.660;2023-03-01T02:49:50;-2.40;99.90
52495;DHT22;38405;53.212;5.660;2023-03-01T02:52:37;-2.50;99.90
52495;DHT22;38405;53.212;5.660;2023-03-01T02:55:13;-2.50;99.90
52495;DHT22;38405;53.212;5.660;2023-03-01T02:57:42;-2.50;99.90
52495;DHT22;38405;53.212;5.660;2023-03-01T03:00:14;-2.50;99.90
52495;DHT22;38405;53.212;5.660;2023-03-01T03:02:46;-2.50;99.90
52495;DHT22;38405;53.212;5.660;2023-03-01T03:05:15;-2.50;99.90
52495;DHT22;38405;53.212;5.660;2023-03-01T03:07:44;-2.50;99.90
52495;DHT22;38405;53.212;5.660;2023-03-01T03:10:14;-2.50;99.90
52495;DHT22;38405;53.212;5.660;2023-03-01T03:12:42;-2.40;99.90
52495;DHT22;38405;53.212;5.660;2023-03-01T03:15:09;-2.40;99.90
52495;DHT22;38405;53.212;5.660;2023-03-01T03:17:39;-2.30;99.90
52495;DHT22;38405;53.212;5.660;2023-03-01T03:20:05;-2.30;99.90
52495;DHT22;38405;53.212;5.660;2023-03-01T03:22:36;-2.20;99.90
52495;DHT22;38405;53.212;5.660;2023-03-01T03:25:02;-2.10;99.90
52495;DHT22;38405;53.212;5.660;2023-03-01T03:27:28;-2.00;99.90
52495;DHT22;38405;53.212;5.660;2023-03-01T03:29:54;-1.90;99.90
52495;DHT22;38405;53.212;5.660;2023-03-01T03:32:19;-1.40;99.90
52495;DHT22;38405;53.212;5.660;2023-03-01T03:34:45;-1.80;99.90
52495;DHT22;38405;53.212;5.660;2023-03-01T03:37:11;-1.50;99.90
52495;DHT22;38405;53.212;5.660;2023-03-01T03:39:56;-1.70;99.90
52495;DHT22;38405;53.212;5.660;2023-03-01T03:42:22;-1.70;99.90
52495;DHT22;38405;53.212;5.660;2023-03-01T03:44:48;-1.60;99.90
52495;DHT22;38405;53.212;5.660;2023-03-01T03:47:14;-1.30;99.90
52495;DHT22;38405;53.212;5.660;2023-03-01T03:49:39;-1.60;99.90
52495;DHT22;38405;53.212;5.660;2023-03-01T03:52:05;-1.60;99.90
52495;DHT22;38405;53.212;5.660;2023-03-01T03:54:42;-1.60;99.90
52495;DHT22;38405;53.212;5.660;2023-03-01T03:57:08;-1.50;99.90
52495;DHT22;38405;53.212;5.660;2023-03-01T03:59:39;-1.50;99.90
52495;DHT22;38405;53.212;5.660;2023-03-01T04:02:04;-1.50;99.90
52495;DHT22;38405;53.212;5.660;2023-03-01T04:04:31;-1.40;99.90
52495;DHT22;38405;53.212;5.660;2023-03-01T04:06:56;-1.50;99.90
52495;DHT22;38405;53.212;5.660;2023-03-01T04:09:22;-1.50;99.90
52495;DHT22;38405;53.212;5.660;2023-03-01T04:11:47;-1.50;99.90
52495;DHT22;38405;53.212;5.660;2023-03-01T04:14:13;-1.50;99.90
52495;DHT22;38405;53.212;5.660;2023-03-01T04:16:39;-1.60;99.90
52495;DHT22;38405;53.212;5.660;2023-03-01T04:19:04;-1.60;99.90
52495;DHT22;38405;53.212;5.660;2023-03-01T04:21:31;-1.60;99.90
52495;DHT22;38405;53.212;5.660;2023-03-01T04:23:57;-1.50;99.90
52495;DHT22;38405;53.212;5.660;2023-03-01T04:26:22;-1.70;99.90
52495;DHT22;38405;53.212;5.660;2023-03-01T04:28:48;-1.70;99.90
52495;DHT22;38405;53.212;5.660;2023-03-01T04:31:18;-1.70;99.90
52495;DHT22;38405;53.212;5.660;2023-03-01T04:33:54;-1.60;99.90
52495;DHT22;38405;53.212;5.660;2023-03-01T04:36:23;-1.70;99.90
52495;DHT22;38405;53.212;5.660;2023-03-01T04:38:49;-1.70;99.90
52495;DHT22;38405;53.212;5.660;2023-03-01T04:41:21;-1.80;99.90
52495;DHT22;38405;53.212;5.660;2023-03-01T04:43:47;-1.80;99.90
52495;DHT22;38405;53.212;5.660;2023-03-01T04:46:18;-1.80;99.90
52495;DHT22;38405;53.212;5.660;2023-03-01T04:48:45;-1.80;99.90
52495;DHT22;38405;53.212;5.660;2023-03-01T04:51:11;-1.70;99.90
52495;DHT22;38405;53.212;5.660;2023-03-01T04:53:40;-1.70;99.90
52495;DHT22;38405;53.212;5.660;2023-03-01T04:56:06;-1.60;99.90
52495;DHT22;38405;53.212;5.660;2023-03-01T04:58:32;-1.60;99.90
52495;DHT22;38405;53.212;5.660;2023-03-01T05:00:58;-1.50;99.90
52495;DHT22;38405;53.212;5.660;2023-03-01T05:03:24;-1.50;99.90
52495;DHT22;38405;53.212;5.660;2023-03-01T05:05:52;-1.50;99.90
52495;DHT22;38405;53.212;5.660;2023-03-01T05:08:17;-1.50;99.90
52495;DHT22;38405;53.212;5.660;2023-03-01T05:10:45;-1.50;99.90
52495;DHT22;38405;53.212;5.660;2023-03-01T05:13:12;-1.50;99.90
52495;DHT22;38405;53.212;5.660;2023-03-01T05:15:47;-1.50;99.90
52495;DHT22;38405;53.212;5.660;2023-03-01T05:18:13;-1.50;99.90
52495;DHT22;38405;53.212;5.660;2023-03-01T05:20:42;-1.50;99.90
52495;DHT22;38405;53.212;5.660;2023-03-01T05:23:10;-1.50;99.90
52495;DHT22;38405;53.212;5.660;2023-03-01T05:25:38;-1.50;99.90
52495;DHT22;38405;53.212;5.660;2023-03-01T05:28:07;-1.50;99.90
52495;DHT22;38405;53.212;5.660;2023-03-01T05:30:36;-1.50;99.90
52495;DHT22;38405;53.212;5.660;2023-03-01T05:33:02;-1.50;99.90
52495;DHT22;38405;53.212;5.660;2023-03-01T05:35:28;-1.50;99.90
52495;DHT22;38405;53.212;5.660;2023-03-01T05:37:54;-1.50;99.90
52495;DHT22;38405;53.212;5.660;2023-03-01T05:40:23;-1.50;99.90
52495;DHT22;38405;53.212;5.660;2023-03-01T05:42:54;-1.50;99.90
52495;DHT22;38405;53.212;5.660;2023-03-01T05:45:21;-1.50;99.90
52495;DHT22;38405;53.212;5.660;2023-03-01T05:47:48;-1.50;99.90
52495;DHT22;38405;53.212;5.660;2023-03-01T05:50:20;-1.50;99.90
52495;DHT22;38405;53.212;5.660;2023-03-01T05:52:47;-1.20;99.90
52495;DHT22;38405;53.212;5.660;2023-03-01T05:55:15;-1.60;99.90
52495;DHT22;38405;53.212;5.660;2023-03-01T05:57:47;-1.60;99.90
52495;DHT22;38405;53.212;5.660;2023-03-01T06:00:14;-1.60;99.90
52495;DHT22;38405;53.212;5.660;2023-03-01T06:02:44;-1.70;99.90
52495;DHT22;38405;53.212;5.660;2023-03-01T06:05:11;-1.70;99.90
52495;DHT22;38405;53.212;5.660;2023-03-01T06:07:38;-1.70;99.90
52495;DHT22;38405;53.212;5.660;2023-03-01T06:10:05;-1.80;99.90
52495;DHT22;38405;53.212;5.660;2023-03-01T06:12:35;-1.70;99.90
52495;DHT22;38405;53.212;5.660;2023-03-01T06:15:01;-1.80;99.90
52495;DHT22;38405;53.212;5.660;2023-03-01T06:17:32;-1.80;99.90
52495;DHT22;38405;53.212;5.660;2023-03-01T06:19:57;-1.80;99.90
52495;DHT22;38405;53.212;5.660;2023-03-01T06:22:23;-1.90;99.90
52495;DHT22;38405;53.212;5.660;2023-03-01T06:24:49;-1.90;99.90
52495;DHT22;38405;53.212;5.660;2023-03-01T06:27:15;-1.90;99.90
52495;DHT22;38405;53.212;5.660;2023-03-01T06:29:41;-2.00;99.90
52495;DHT22;38405;53.212;5.660;2023-03-01T06:32:07;-2.00;99.90
52495;DHT22;38405;53.212;5.660;2023-03-01T06:34:33;-2.10;99.90
52495;DHT22;38405;53.212;5.660;2023-03-01T06:36:59;-1.60;99.90
52495;DHT22;38405;53.212;5.660;2023-03-01T06:39:33;-2.20;99.90
52495;DHT22;38405;53.212;5.660;2023-03-01T06:42:03;-2.20;99.90
52495;DHT22;38405;53.212;5.660;2023-03-01T06:44:28;-1.60;99.90
52495;DHT22;38405;53.212;5.660;2023-03-01T06:46:54;-2.20;99.90
52495;DHT22;38405;53.212;5.660;2023-03-01T06:49:21;-2.20;99.90
52495;DHT22;38405;53.212;5.660;2023-03-01T06:51:47;-2.20;99.90
52495;DHT22;38405;53.212;5.660;2023-03-01T06:54:13;-2.20;99.90
52495;DHT22;38405;53.212;5.660;2023-03-01T06:56:39;-2.20;99.90
52495;DHT22;38405;53.212;5.660;2023-03-01T06:59:05;-2.10;99.90
52495;DHT22;38405;53.212;5.660;2023-03-01T07:01:31;-2.10;99.90
52495;DHT22;38405;53.212;5.660;2023-03-01T07:03:57;-2.10;99.90
52495;DHT22;38405;53.212;5.660;2023-03-01T07:06:23;-2.10;99.90
52495;DHT22;38405;53.212;5.660;2023-03-01T07:08:51;-2.10;99.90
52495;DHT22;38405;53.212;5.660;2023-03-01T07:11:17;-2.10;99.90
52495;DHT22;38405;53.212;5.660;2023-03-01T07:13:42;-2.00;99.90
52495;DHT22;38405;53.212;5.660;2023-03-01T07:16:08;-1.90;99.90
52495;DHT22;38405;53.212;5.660;2023-03-01T07:18:34;-2.30;99.90
52495;DHT22;38405;53.212;5.660;2023-03-01T07:21:05;-1.80;99.90
52495;DHT22;38405;53.212;5.660;2023-03-01T07:23:31;-1.80;99.90
52495;DHT22;38405;53.212;5.660;2023-03-01T07:25:57;-1.80;99.90
52495;DHT22;38405;53.212;5.660;2023-03-01T07:28:23;-1.80;99.90
52495;DHT22;38405;53.212;5.660;2023-03-01T07:30:49;-1.80;99.90
52495;DHT22;38405;53.212;5.660;2023-03-01T07:33:14;-1.80;99.90
52495;DHT22;38405;53.212;5.660;2023-03-01T07:35:40;-1.70;99.90
52495;DHT22;38405;53.212;5.660;2023-03-01T07:38:05;-1.70;99.90
52495;DHT22;38405;53.212;5.660;2023-03-01T07:40:31;-1.60;99.90
52495;DHT22;38405;53.212;5.660;2023-03-01T07:42:58;-1.40;99.90
52495;DHT22;38405;53.212;5.660;2023-03-01T07:45:24;-0.70;99.90
52495;DHT22;38405;53.212;5.660;2023-03-01T07:47:52;0.10;99.90
52495;DHT22;38405;53.212;5.660;2023-03-01T07:50:19;1.00;99.90
52495;DHT22;38405;53.212;5.660;2023-03-01T07:52:46;1.50;99.90
52495;DHT22;38405;53.212;5.660;2023-03-01T07:55:12;2.20;99.90
52495;DHT22;38405;53.212;5.660;2023-03-01T07:57:38;2.10;99.90
52495;DHT22;38405;53.212;5.660;2023-03-01T08:00:06;2.50;99.90
52495;DHT22;38405;53.212;5.660;2023-03-01T08:02:32;2.30;99.90
52495;DHT22;38405;53.212;5.660;2023-03-01T08:04:58;2.30;99.90
52495;DHT22;38405;53.212;5.660;2023-03-01T08:07:23;2.30;99.90
52495;DHT22;38405;53.212;5.660;2023-03-01T08:09:49;2.40;99.90
52495;DHT22;38405;53.212;5.660;2023-03-01T08:12:15;2.40;99.90
52495;DHT22;38405;53.212;5.660;2023-03-01T08:14:43;2.50;99.90
52495;DHT22;38405;53.212;5.660;2023-03-01T08:17:09;2.60;99.90
52495;DHT22;38405;53.212;5.660;2023-03-01T08:19:37;2.60;99.90
52495;DHT22;38405;53.212;5.660;2023-03-01T08:22:03;2.80;99.90
52495;DHT22;38405;53.212;5.660;2023-03-01T08:24:29;2.80;99.90
52495;DHT22;38405;53.212;5.660;2023-03-01T08:26:57;2.90;99.90
52495;DHT22;38405;53.212;5.660;2023-03-01T08:29:23;3.10;99.90
52495;DHT22;38405;53.212;5.660;2023-03-01T08:31:50;3.50;99.90
52495;DHT22;38405;53.212;5.660;2023-03-01T08:34:17;4.10;99.90
52495;DHT22;38405;53.212;5.660;2023-03-01T08:36:45;4.60;99.90
52495;DHT22;38405;53.212;5.660;2023-03-01T08:39:13;5.50;99.90
52495;DHT22;38405;53.212;5.660;2023-03-01T08:41:42;6.20;99.90
52495;DHT22;38405;53.212;5.660;2023-03-01T08:44:09;7.20;99.90
52495;DHT22;38405;53.212;5.660;2023-03-01T08:46:38;7.20;99.90
52495;DHT22;38405;53.212;5.660;2023-03-01T08:49:08;8.00;99.90
52495;DHT22;38405;53.212;5.660;2023-03-01T08:51:35;8.60;99.90
52495;DHT22;38405;53.212;5.660;2023-03-01T08:54:13;9.00;99.90
52495;DHT22;38405;53.212;5.660;2023-03-01T08:56:40;9.20;99.90
52495;DHT22;38405;53.212;5.660;2023-03-01T08:59:07;9.00;99.90
52495;DHT22;38405;53.212;5.660;2023-03-01T09:01:33;8.50;99.90
52495;DHT22;38405;53.212;5.660;2023-03-01T09:03:59;8.20;99.90
52495;DHT22;38405;53.212;5.660;2023-03-01T09:06:25;7.80;99.90
52495;DHT22;38405;53.212;5.660;2023-03-01T09:08:50;7.70;99.90
52495;DHT22;38405;53.212;5.660;2023-03-01T09:11:21;7.70;99.90
52495;DHT22;38405;53.212;5.660;2023-03-01T09:13:47;7.60;99.90
52495;DHT22;38405;53.212;5.660;2023-03-01T09:16:15;7.70;99.90
52495;DHT22;38405;53.212;5.660;2023-03-01T09:19:02;7.70;99.90
52495;DHT22;38405;53.212;5.660;2023-03-01T09:21:27;7.80;99.90
52495;DHT22;38405;53.212;5.660;2023-03-01T09:23:55;7.90;99.90
52495;DHT22;38405;53.212;5.660;2023-03-01T09:26:22;8.10;99.90
52495;DHT22;38405;53.212;5.660;2023-03-01T09:28:53;8.20;99.90
52495;DHT22;38405;53.212;5.660;2023-03-01T09:31:20;8.30;99.90
52495;DHT22;38405;53.212;5.660;2023-03-01T09:33:47;8.40;99.90
52495;DHT22;38405;53.212;5.660;2023-03-01T09:36:17;8.70;99.90
52495;DHT22;38405;53.212;5.660;2023-03-01T09:38:43;8.80;99.90
52495;DHT22;38405;53.212;5.660;2023-03-01T09:41:22;9.00;99.90
52495;DHT22;38405;53.212;5.660;2023-03-01T09:43:59;9.30;99.90
52495;DHT22;38405;53.212;5.660;2023-03-01T09:46:29;9.50;99.90
52495;DHT22;38405;53.212;5.660;2023-03-01T09:49:02;9.70;99.90
52495;DHT22;38405;53.212;5.660;2023-03-01T09:51:32;9.90;99.90
52495;DHT22;38405;53.212;5.660;2023-03-01T09:53:58;10.10;99.90
52495;DHT22;38405;53.212;5.660;2023-03-01T09:56:41;10.20;99.90
52495;DHT22;38405;53.212;5.660;2023-03-01T09:59:28;10.40;99.90
52495;DHT22;38405;53.212;5.660;2023-03-01T10:02:20;10.60;99.90
52495;DHT22;38405;53.212;5.660;2023-03-01T10:04:57;10.60;99.90
52495;DHT22;38405;53.212;5.660;2023-03-01T10:10:47;10.60;99.90
52495;DHT22;38405;53.212;5.660;2023-03-01T10:16:48;11.00;99.90
52495;DHT22;38405;53.212;5.660;2023-03-01T10:19:24;10.90;99.90
52495;DHT22;38405;53.212;5.660;2023-03-01T10:21:53;11.00;99.90
52495;DHT22;38405;53.212;5.660;2023-03-01T10:24:20;11.10;99.90
52495;DHT22;38405;53.212;5.660;2023-03-01T10:26:58;11.10;99.90
52495;DHT22;38405;53.212;5.660;2023-03-01T10:32:29;11.40;99.90
52495;DHT22;38405;53.212;5.660;2023-03-01T10:34:55;11.40;99.90
52495;DHT22;38405;53.212;5.660;2023-03-01T10:37:22;11.30;99.90
52495;DHT22;38405;53.212;5.660;2023-03-01T10:40:07;11.30;99.90
52495;DHT22;38405;53.212;5.660;2023-03-01T10:42:47;11.30;99.90
52495;DHT22;38405;53.212;5.660;2023-03-01T10:45:33;11.10;99.90
52495;DHT22;38405;53.212;5.660;2023-03-01T10:48:26;10.80;99.90
52495;DHT22;38405;53.212;5.660;2023-03-01T10:53:28;11.00;99.90
52495;DHT22;38405;53.212;5.660;2023-03-01T10:56:14;11.00;99.90
52495;DHT22;38405;53.212;5.660;2023-03-01T10:58:59;11.10;99.90
52495;DHT22;38405;53.212;5.660;2023-03-01T11:01:28;11.00;99.90
52495;DHT22;38405;53.212;5.660;2023-03-01T11:06:34;11.10;99.90
52495;DHT22;38405;53.212;5.660;2023-03-01T11:09:23;11.10;99.90
52495;DHT22;38405;53.212;5.660;2023-03-01T11:12:00;11.00;99.90
52495;DHT22;38405;53.212;5.660;2023-03-01T11:14:29;10.80;99.90
52495;DHT22;38405;53.212;5.660;2023-03-01T11:17:02;10.80;99.90
52495;DHT22;38405;53.212;5.660;2023-03-01T11:19:28;10.80;99.90
52495;DHT22;38405;53.212;5.660;2023-03-01T11:22:18;11.10;99.90
52495;DHT22;38405;53.212;5.660;2023-03-01T11:24:53;11.20;99.90
52495;DHT22;38405;53.212;5.660;2023-03-01T11:27:25;10.90;99.90
52495;DHT22;38405;53.212;5.660;2023-03-01T11:32:57;11.00;99.90
52495;DHT22;38405;53.212;5.660;2023-03-01T11:35:27;11.10;99.90
52495;DHT22;38405;53.212;5.660;2023-03-01T11:38:22;10.80;99.90
52495;DHT22;38405;53.212;5.660;2023-03-01T11:41:16;10.80;99.90
52495;DHT22;38405;53.212;5.660;2023-03-01T11:43:57;10.90;99.90
52495;DHT22;38405;53.212;5.660;2023-03-01T11:55:32;11.20;99.90
52495;DHT22;38405;53.212;5.660;2023-03-01T12:04:00;11.00;99.90
52495;DHT22;38405;53.212;5.660;2023-03-01T12:06:36;11.00;99.90
52495;DHT22;38405;53.212;5.660;2023-03-01T12:09:44;11.00;99.90
52495;DHT22;38405;53.212;5.660;2023-03-01T12:20:26;10.40;99.90
52495;DHT22;38405;53.212;5.660;2023-03-01T12:23:40;10.60;99.90
52495;DHT22;38405;53.212;5.660;2023-03-01T12:34:54;10.70;99.90
52495;DHT22;38405;53.212;5.660;2023-03-01T12:40:58;10.50;99.90
52495;DHT22;38405;53.212;5.660;2023-03-01T12:46:44;10.40;99.90
52495;DHT22;38405;53.212;5.660;2023-03-01T12:49:34;10.40;99.90
52495;DHT22;38405;53.212;5.660;2023-03-01T12:52:19;10.40;99.90
52495;DHT22;38405;53.212;5.660;2023-03-01T12:54:49;10.30;99.90
52495;DHT22;38405;53.212;5.660;2023-03-01T12:57:46;10.20;99.90
52495;DHT22;38405;53.212;5.660;2023-03-01T13:00:47;10.10;99.90
52495;DHT22;38405;53.212;5.660;2023-03-01T13:03:38;10.10;99.90
52495;DHT22;38405;53.212;5.660;2023-03-01T13:06:23;10.10;99.90
52495;DHT22;38405;53.212;5.660;2023-03-01T13:09:05;10.00;99.90
52495;DHT22;38405;53.212;5.660;2023-03-01T13:11:36;9.90;99.90
52495;DHT22;38405;53.212;5.660;2023-03-01T13:16:46;10.10;99.90
52495;DHT22;38405;53.212;5.660;2023-03-01T13:19:22;9.90;99.90
52495;DHT22;38405;53.212;5.660;2023-03-01T13:21:53;10.00;99.90
52495;DHT22;38405;53.212;5.660;2023-03-01T13:24:43;10.00;99.90
52495;DHT22;38405;53.212;5.660;2023-03-01T13:27:09;10.00;99.90
52495;DHT22;38405;53.212;5.660;2023-03-01T13:29:56;10.00;99.90
52495;DHT22;38405;53.212;5.660;2023-03-01T13:32:30;9.90;99.90
52495;DHT22;38405;53.212;5.660;2023-03-01T13:35:40;9.90;99.90
52495;DHT22;38405;53.212;5.660;2023-03-01T13:37:49;9.70;99.90
52495;DHT22;38405;53.212;5.660;2023-03-01T13:42:44;9.50;99.90
52495;DHT22;38405;53.212;5.660;2023-03-01T13:47:58;9.50;99.90
52495;DHT22;38405;53.212;5.660;2023-03-01T13:50:35;9.50;99.90
52495;DHT22;38405;53.212;5.660;2023-03-01T13:53:05;9.50;99.90
52495;DHT22;38405;53.212;5.660;2023-03-01T13:55:48;9.60;99.90
52495;DHT22;38405;53.212;5.660;2023-03-01T13:58:22;9.50;99.90
52495;DHT22;38405;53.212;5.660;2023-03-01T14:00:55;9.40;99.90
52495;DHT22;38405;53.212;5.660;2023-03-01T14:03:21;9.40;99.90
52495;DHT22;38405;53.212;5.660;2023-03-01T14:06:06;9.40;99.90
52495;DHT22;38405;53.212;5.660;2023-03-01T14:08:36;9.30;99.90
52495;DHT22;38405;53.212;5.660;2023-03-01T14:19:43;9.30;99.90
52495;DHT22;38405;53.212;5.660;2023-03-01T14:24:44;9.20;99.90
52495;DHT22;38405;53.212;5.660;2023-03-01T14:27:12;9.20;99.90
52495;DHT22;38405;53.212;5.660;2023-03-01T14:29:41;9.30;99.90
52495;DHT22;38405;53.212;5.660;2023-03-01T14:32:11;9.20;99.90
52495;DHT22;38405;53.212;5.660;2023-03-01T14:34:43;9.20;99.90
52495;DHT22;38405;53.212;5.660;2023-03-01T14:37:11;9.10;99.90
52495;DHT22;38405;53.212;5.660;2023-03-01T14:39:42;8.90;99.90
52495;DHT22;38405;53.212;5.660;2023-03-01T14:42:08;8.80;99.90
52495;DHT22;38405;53.212;5.660;2023-03-01T14:44:37;8.60;99.90
52495;DHT22;38405;53.212;5.660;2023-03-01T14:47:03;9.00;99.90
52495;DHT22;38405;53.212;5.660;2023-03-01T14:49:31;8.60;99.90
52495;DHT22;38405;53.212;5.660;2023-03-01T14:52:01;8.60;99.90
52495;DHT22;38405;53.212;5.660;2023-03-01T14:57:01;8.60;99.90
52495;DHT22;38405;53.212;5.660;2023-03-01T14:59:28;8.50;99.90
52495;DHT22;38405;53.212;5.660;2023-03-01T15:01:56;8.60;99.90
52495;DHT22;38405;53.212;5.660;2023-03-01T15:04:24;8.60;99.90
52495;DHT22;38405;53.212;5.660;2023-03-01T15:06:52;8.70;99.90
52495;DHT22;38405;53.212;5.660;2023-03-01T15:09:20;8.60;99.90
52495;DHT22;38405;53.212;5.660;2023-03-01T15:11:46;8.60;99.90
52495;DHT22;38405;53.212;5.660;2023-03-01T15:17:32;8.40;99.90
52495;DHT22;38405;53.212;5.660;2023-03-01T15:19:58;8.30;99.90
52495;DHT22;38405;53.212;5.660;2023-03-01T15:22:28;8.30;99.90
52495;DHT22;38405;53.212;5.660;2023-03-01T15:24:54;8.20;99.90
52495;DHT22;38405;53.212;5.660;2023-03-01T15:27:23;8.20;99.90
52495;DHT22;38405;53.212;5.660;2023-03-01T15:30:00;8.20;99.90
52495;DHT22;38405;53.212;5.660;2023-03-01T15:32:35;8.10;99.90
52495;DHT22;38405;53.212;5.660;2023-03-01T15:35:42;8.10;99.90
52495;DHT22;38405;53.212;5.660;2023-03-01T15:40:59;8.10;99.90
52495;DHT22;38405;53.212;5.660;2023-03-01T15:43:43;8.00;99.90
52495;DHT22;38405;53.212;5.660;2023-03-01T15:46:20;8.00;99.90
52495;DHT22;38405;53.212;5.660;2023-03-01T15:48:50;8.00;99.90
52495;DHT22;38405;53.212;5.660;2023-03-01T15:51:22;8.00;99.90
52495;DHT22;38405;53.212;5.660;2023-03-01T15:53:50;8.00;99.90
52495;DHT22;38405;53.212;5.660;2023-03-01T15:56:16;8.00;99.90
52495;DHT22;38405;53.212;5.660;2023-03-01T15:58:42;7.90;99.90
52495;DHT22;38405;53.212;5.660;2023-03-01T16:01:15;7.90;99.90
52495;DHT22;38405;53.212;5.660;2023-03-01T16:03:42;7.80;99.90
52495;DHT22;38405;53.212;5.660;2023-03-01T16:06:17;7.80;99.90
52495;DHT22;38405;53.212;5.660;2023-03-01T16:08:43;7.70;99.90
52495;DHT22;38405;53.212;5.660;2023-03-01T16:11:20;7.60;99.90
52495;DHT22;38405;53.212;5.660;2023-03-01T16:13:46;7.50;99.90
52495;DHT22;38405;53.212;5.660;2023-03-01T16:16:13;7.50;99.90
52495;DHT22;38405;53.212;5.660;2023-03-01T16:18:42;7.30;99.90
52495;DHT22;38405;53.212;5.660;2023-03-01T16:21:16;7.20;99.90
52495;DHT22;38405;53.212;5.660;2023-03-01T16:23:43;7.10;99.90
52495;DHT22;38405;53.212;5.660;2023-03-01T16:26:10;7.20;99.90
52495;DHT22;38405;53.212;5.660;2023-03-01T16:28:35;6.90;99.90
52495;DHT22;38405;53.212;5.660;2023-03-01T16:31:01;6.80;99.90
52495;DHT22;38405;53.212;5.660;2023-03-01T16:33:27;6.70;99.90
52495;DHT22;38405;53.212;5.660;2023-03-01T16:35:53;6.60;99.90
52495;DHT22;38405;53.212;5.660;2023-03-01T16:38:18;6.50;99.90
52495;DHT22;38405;53.212;5.660;2023-03-01T16:40:49;6.40;99.90
52495;DHT22;38405;53.212;5.660;2023-03-01T16:43:15;6.30;99.90
52495;DHT22;38405;53.212;5.660;2023-03-01T16:45:41;6.30;99.90
52495;DHT22;38405;53.212;5.660;2023-03-01T16:48:10;6.20;99.90
52495;DHT22;38405;53.212;5.660;2023-03-01T16:50:36;6.20;99.90
52495;DHT22;38405;53.212;5.660;2023-03-01T16:53:03;6.40;99.90
52495;DHT22;38405;53.212;5.660;2023-03-01T16:55:29;6.00;99.90
52495;DHT22;38405;53.212;5.660;2023-03-01T16:57:55;5.90;99.90
52495;DHT22;38405;53.212;5.660;2023-03-01T17:00:20;5.80;99.90
52495;DHT22;38405;53.212;5.660;2023-03-01T17:02:47;5.70;99.90
52495;DHT22;38405;53.212;5.660;2023-03-01T17:05:16;5.60;99.90
52495;DHT22;38405;53.212;5.660;2023-03-01T17:07:42;5.50;99.90
52495;DHT22;38405;53.212;5.660;2023-03-01T17:10:10;5.50;99.90
52495;DHT22;38405;53.212;5.660;2023-03-01T17:12:35;5.40;99.90
52495;DHT22;38405;53.212;5.660;2023-03-01T17:15:05;5.30;99.90
52495;DHT22;38405;53.212;5.660;2023-03-01T17:17:31;5.20;99.90
52495;DHT22;38405;53.212;5.660;2023-03-01T17:19:57;5.20;99.90
52495;DHT22;38405;53.212;5.660;2023-03-01T17:22:22;5.10;99.90
52495;DHT22;38405;53.212;5.660;2023-03-01T17:24:48;5.00;99.90